createdAt,value
2022-08-23T00:02:28.311Z,22.13
2022-08-23T00:05:09.007Z,22.14
2022-08-23T00:07:39.106Z,22.15
2022-08-23T00:10:08.136Z,22.18
2022-08-23T00:12:36.409Z,22.16
2022-08-23T00:15:04.369Z,22.15
2022-08-23T00:17:35.050Z,22.11
2022-08-23T00:20:04.653Z,22.12
2022-08-23T00:22:32.335Z,22.12
2022-08-23T00:25:00.127Z,22.11
2022-08-23T00:27:28.579Z,22.12
2022-08-23T00:29:56.641Z,22.14
2022-08-23T00:32:24.960Z,22.17
2022-08-23T00:34:53.887Z,22.18
2022-08-23T00:37:21.737Z,22.19
2022-08-23T00:39:49.389Z,22.21
2022-08-23T00:42:51.430Z,22.22
2022-08-23T00:45:37.196Z,22.19
2022-08-23T00:48:05.234Z,22.16
2022-08-23T00:50:35.613Z,22.13
2022-08-23T00:53:05.814Z,22.10
2022-08-23T00:55:33.845Z,22.08
2022-08-23T00:58:01.632Z,22.08
2022-08-23T01:00:29.559Z,22.10
2022-08-23T01:02:58.040Z,22.12
2022-08-23T01:05:26.907Z,22.11
2022-08-23T01:07:56.882Z,22.11
2022-08-23T01:10:26.183Z,22.12
2022-08-23T01:12:57.253Z,22.13
2022-08-23T01:15:26.195Z,22.10
2022-08-23T01:17:55.905Z,22.11
2022-08-23T01:20:26.906Z,22.11
2022-08-23T01:22:58.821Z,22.12
2022-08-23T01:25:31.403Z,22.13
2022-08-23T01:27:59.690Z,22.14
2022-08-23T01:30:28.203Z,22.14
2022-08-23T01:32:57.335Z,22.16
2022-08-23T01:37:59.893Z,22.17
2022-08-23T01:40:29.183Z,22.16
2022-08-23T01:42:57.100Z,22.14
2022-08-23T01:45:24.940Z,22.18
2022-08-23T01:47:52.506Z,22.20
2022-08-23T01:50:20.707Z,22.20
2022-08-23T01:52:48.305Z,22.20
2022-08-23T01:55:19.282Z,22.20
2022-08-23T01:57:50.211Z,22.19
2022-08-23T02:00:19.275Z,22.19
2022-08-23T02:02:48.212Z,22.19
2022-08-23T02:05:18.790Z,22.17
2022-08-23T02:07:47.389Z,22.15
2022-08-23T02:10:15.278Z,22.12
2022-08-23T02:12:43.063Z,22.08
2022-08-23T02:15:16.107Z,22.10
2022-08-23T02:17:46.580Z,22.07
2022-08-23T02:20:14.215Z,22.06
2022-08-23T02:22:42.332Z,22.05
2022-08-23T02:25:10.205Z,22.02
2022-08-23T02:27:38.411Z,22.04
2022-08-23T02:30:13.206Z,22.04
2022-08-23T02:32:42.313Z,22.05
2022-08-23T02:35:10.530Z,22.05
2022-08-23T02:37:38.307Z,22.08
2022-08-23T02:40:06.405Z,22.11
2022-08-23T02:42:34.260Z,22.10
2022-08-23T02:45:02.883Z,22.08
2022-08-23T02:47:32.684Z,22.07
2022-08-23T02:50:14.334Z,22.06
2022-08-23T02:52:42.293Z,22.06
2022-08-23T02:55:10.241Z,22.06
2022-08-23T02:57:40.055Z,22.04
2022-08-23T03:00:10.195Z,22.04
2022-08-23T03:02:38.604Z,22.04
2022-08-23T03:05:06.644Z,22.04
2022-08-23T03:07:35.717Z,22.06
2022-08-23T03:10:04.406Z,22.06
2022-08-23T03:12:34.126Z,22.06
2022-08-23T03:15:02.538Z,22.07
2022-08-23T03:17:30.205Z,22.08
2022-08-23T03:19:57.921Z,22.08
2022-08-23T03:22:25.552Z,22.06
2022-08-23T03:24:55.656Z,22.07
2022-08-23T03:27:31.457Z,22.07
2022-08-23T03:30:06.860Z,22.08
2022-08-23T03:32:39.775Z,22.08
2022-08-23T03:35:17.303Z,22.07
2022-08-23T03:37:46.676Z,22.10
2022-08-23T03:40:17.035Z,22.07
2022-08-23T03:42:44.767Z,22.08
2022-08-23T03:45:14.583Z,22.06
2022-08-23T03:47:44.278Z,22.06
2022-08-23T03:50:12.193Z,22.06
2022-08-23T03:52:42.075Z,22.06
2022-08-23T03:55:09.981Z,22.04
2022-08-23T03:57:42.265Z,22.06
2022-08-23T04:00:10.654Z,22.16
2022-08-23T04:02:42.235Z,22.25
2022-08-23T04:05:12.515Z,22.30
2022-08-23T04:08:07.413Z,22.33
2022-08-23T04:10:35.357Z,22.34
2022-08-23T04:13:04.600Z,22.35
2022-08-23T04:15:32.548Z,22.36
2022-08-23T04:18:00.814Z,22.38
2022-08-23T04:20:28.737Z,22.38
2022-08-23T04:23:02.053Z,22.40
2022-08-23T04:25:35.583Z,22.41
2022-08-23T04:28:06.490Z,22.41
2022-08-23T04:30:35.200Z,22.43
2022-08-23T04:33:09.976Z,22.42
2022-08-23T04:35:38.577Z,22.43
2022-08-23T04:38:18.065Z,22.45
2022-08-23T04:41:11.263Z,22.45
2022-08-23T04:43:41.341Z,22.45
2022-08-23T04:46:09.885Z,22.46
2022-08-23T04:48:37.565Z,22.47
2022-08-23T04:51:05.860Z,22.47
2022-08-23T04:53:36.598Z,22.48
2022-08-23T04:56:24.656Z,22.48
2022-08-23T04:58:55.032Z,22.48
2022-08-23T05:01:25.579Z,22.49
2022-08-23T05:03:55.334Z,22.51
2022-08-23T05:06:25.012Z,22.51
2022-08-23T05:08:52.553Z,22.51
2022-08-23T05:11:20.602Z,22.52
2022-08-23T05:13:49.640Z,22.52
2022-08-23T05:16:18.800Z,22.52
2022-08-23T05:18:55.526Z,22.54
2022-08-23T05:21:23.637Z,22.55
2022-08-23T05:23:54.847Z,22.47
2022-08-23T05:26:25.074Z,22.39
2022-08-23T05:28:52.729Z,22.22
2022-08-23T05:31:26.946Z,21.70
2022-08-23T05:33:58.155Z,21.39
2022-08-23T05:36:37.746Z,21.17
2022-08-23T05:39:25.698Z,21.02
2022-08-23T05:42:03.479Z,20.93
2022-08-23T05:44:34.526Z,20.91
2022-08-23T05:47:10.827Z,20.79
2022-08-23T05:50:00.004Z,20.78
2022-08-23T05:52:30.560Z,20.73
2022-08-23T05:54:58.268Z,20.74
2022-08-23T05:57:43.485Z,20.70
2022-08-23T06:00:13.332Z,20.66
2022-08-23T06:02:49.242Z,20.61
2022-08-23T06:05:18.470Z,20.62
2022-08-23T06:07:47.481Z,20.52
2022-08-23T06:10:18.117Z,20.51
2022-08-23T06:12:50.999Z,20.53
2022-08-23T06:15:18.685Z,20.46
2022-08-23T06:17:47.822Z,20.54
2022-08-23T06:20:16.581Z,20.62
2022-08-23T06:23:03.412Z,20.58
2022-08-23T06:25:32.269Z,20.49
2022-08-23T06:28:20.392Z,20.51
2022-08-23T06:30:54.905Z,20.72
2022-08-23T06:33:30.059Z,20.91
2022-08-23T06:36:18.510Z,21.14
2022-08-23T06:39:09.465Z,21.25
2022-08-23T06:41:58.059Z,21.31
2022-08-23T06:44:27.421Z,21.35
2022-08-23T06:47:17.816Z,21.40
2022-08-23T06:49:51.068Z,21.46
2022-08-23T06:52:38.703Z,21.50
2022-08-23T06:55:26.440Z,21.53
2022-08-23T06:58:13.380Z,21.57
2022-08-23T07:01:23.526Z,21.59
2022-08-23T07:04:05.693Z,21.62
2022-08-23T07:07:06.154Z,21.65
2022-08-23T07:09:40.168Z,21.68
2022-08-23T07:12:08.270Z,21.71
2022-08-23T07:14:39.187Z,21.73
2022-08-23T07:17:06.914Z,21.76
2022-08-23T07:19:34.972Z,21.77
2022-08-23T07:22:04.947Z,21.80
2022-08-23T07:24:33.921Z,21.84
2022-08-23T07:27:06.732Z,21.87
2022-08-23T07:29:36.062Z,21.88
2022-08-23T07:32:04.755Z,21.91
2022-08-23T07:34:33.083Z,21.93
2022-08-23T07:37:01.676Z,21.94
2022-08-23T07:39:32.182Z,21.95
2022-08-23T07:42:00.765Z,21.96
2022-08-23T07:44:29.090Z,21.96
2022-08-23T07:46:57.685Z,21.98
2022-08-23T07:49:29.339Z,21.99
2022-08-23T07:51:59.876Z,22.01
2022-08-23T07:54:28.463Z,22.02
2022-08-23T07:57:18.288Z,22.03
2022-08-23T08:00:09.504Z,22.04
2022-08-23T08:03:03.244Z,22.04
2022-08-23T08:05:44.313Z,22.07
2022-08-23T08:08:12.041Z,22.07
2022-08-23T08:10:40.807Z,22.10
2022-08-23T08:13:09.937Z,22.10
2022-08-23T08:15:40.821Z,22.11
2022-08-23T08:18:12.001Z,22.11
2022-08-23T08:21:05.830Z,22.12
2022-08-23T08:23:59.717Z,22.13
2022-08-23T08:26:47.262Z,22.13
2022-08-23T08:29:16.689Z,22.15
2022-08-23T08:31:45.779Z,22.15
2022-08-23T08:34:13.947Z,22.16
2022-08-23T08:36:42.460Z,22.16
2022-08-23T08:39:16.291Z,22.17
2022-08-23T08:41:51.213Z,22.18
2022-08-23T08:44:36.345Z,22.19
2022-08-23T08:47:07.421Z,22.18
2022-08-23T08:49:36.254Z,22.20
2022-08-23T08:52:09.779Z,22.21
2022-08-23T08:54:37.591Z,22.21
2022-08-23T08:57:05.414Z,22.23
2022-08-23T08:59:44.195Z,22.22
2022-08-23T09:02:22.085Z,22.24
2022-08-23T09:05:01.281Z,22.25
2022-08-23T09:07:31.351Z,22.25
2022-08-23T09:10:06.415Z,22.26
2022-08-23T09:12:37.697Z,22.28
2022-08-23T09:15:12.913Z,22.28
2022-08-23T09:17:43.900Z,22.27
2022-08-23T09:20:14.358Z,22.28
2022-08-23T09:22:45.894Z,22.29
2022-08-23T09:25:24.104Z,22.29
2022-08-23T09:27:59.648Z,22.31
2022-08-23T09:30:42.310Z,22.31
2022-08-23T09:33:17.373Z,22.31
2022-08-23T09:35:45.366Z,22.31
2022-08-23T09:38:19.965Z,22.33
2022-08-23T09:40:51.267Z,22.33
2022-08-23T09:43:20.047Z,22.34
2022-08-23T09:45:55.893Z,22.33
2022-08-23T09:48:34.806Z,22.34
2022-08-23T09:51:04.697Z,22.35
2022-08-23T09:53:32.563Z,22.36
2022-08-23T09:56:00.497Z,22.36
2022-08-23T09:58:31.970Z,22.36
2022-08-23T10:01:18.308Z,22.39
2022-08-23T10:04:07.190Z,22.39
2022-08-23T10:06:35.223Z,22.38
2022-08-23T10:09:05.951Z,22.40
2022-08-23T10:11:37.631Z,22.42
2022-08-23T10:14:05.311Z,22.41
2022-08-23T10:16:35.404Z,22.42
2022-08-23T10:19:14.719Z,22.42
2022-08-23T10:21:47.181Z,22.42
2022-08-23T10:24:17.367Z,22.43
2022-08-23T10:26:47.175Z,22.45
2022-08-23T10:29:34.083Z,22.45
2022-08-23T10:32:03.625Z,22.45
2022-08-23T10:34:50.713Z,22.46
2022-08-23T10:37:31.721Z,22.47
2022-08-23T10:40:03.961Z,22.49
2022-08-23T10:42:36.643Z,22.49
2022-08-23T10:45:05.362Z,22.50
2022-08-23T10:47:34.861Z,22.51
2022-08-23T10:50:07.231Z,22.51
2022-08-23T10:52:37.006Z,22.52
2022-08-23T10:55:16.948Z,22.56
2022-08-23T10:57:46.320Z,22.56
2022-08-23T11:00:17.304Z,22.56
2022-08-23T11:02:50.574Z,22.55
2022-08-23T11:05:27.119Z,22.55
2022-08-23T11:07:57.170Z,22.55
2022-08-23T11:10:26.730Z,22.56
2022-08-23T11:12:55.357Z,22.57
2022-08-23T11:15:26.390Z,22.58
2022-08-23T11:17:56.745Z,22.61
2022-08-23T11:20:44.112Z,22.65
2022-08-23T11:23:14.293Z,22.62
2022-08-23T11:25:43.013Z,22.61
2022-08-23T11:28:30.433Z,22.62
2022-08-23T11:30:59.618Z,22.63
2022-08-23T11:33:32.245Z,22.63
2022-08-23T11:36:16.629Z,22.64
2022-08-23T11:39:00.284Z,22.64
2022-08-23T11:41:30.136Z,22.63
2022-08-23T11:44:17.738Z,22.64
2022-08-23T11:46:56.526Z,22.65
2022-08-23T11:49:51.614Z,22.66
2022-08-23T11:52:31.912Z,22.67
2022-08-23T11:55:14.456Z,22.67
2022-08-23T11:57:49.416Z,22.69
2022-08-23T12:00:21.067Z,22.68
2022-08-23T12:03:02.900Z,22.69
2022-08-23T12:06:04.045Z,22.71
2022-08-23T12:08:56.344Z,22.71
2022-08-23T12:11:24.593Z,22.72
2022-08-23T12:13:54.940Z,22.72
2022-08-23T12:16:36.273Z,22.73
2022-08-23T12:19:07.919Z,22.74
2022-08-23T12:21:45.703Z,22.74
2022-08-23T12:24:14.604Z,22.74
2022-08-23T12:26:45.443Z,22.73
2022-08-23T12:29:19.630Z,22.74
2022-08-23T12:31:49.867Z,22.74
2022-08-23T12:34:19.286Z,22.75
2022-08-23T12:36:48.101Z,22.77
2022-08-23T12:39:23.070Z,22.77
2022-08-23T12:41:52.168Z,22.79
2022-08-23T12:44:21.865Z,22.80
2022-08-23T12:46:49.593Z,22.82
2022-08-23T12:49:23.982Z,22.82
2022-08-23T12:51:52.072Z,22.83
2022-08-23T12:54:20.587Z,22.82
2022-08-23T12:56:48.539Z,22.83
2022-08-23T12:59:28.393Z,22.83
2022-08-23T13:01:56.132Z,22.83
2022-08-23T13:04:23.839Z,22.83
2022-08-23T13:06:52.379Z,22.83
2022-08-23T13:09:20.596Z,22.86
2022-08-23T13:11:48.297Z,22.86
2022-08-23T13:14:31.020Z,22.89
2022-08-23T13:16:59.548Z,22.89
2022-08-23T13:19:28.245Z,22.91
2022-08-23T13:22:12.022Z,22.90
2022-08-23T13:24:40.118Z,22.92
2022-08-23T13:27:18.295Z,22.93
2022-08-23T13:29:51.148Z,22.94
2022-08-23T13:32:27.047Z,22.94
2022-08-23T13:34:56.325Z,22.94
2022-08-23T13:37:24.543Z,22.95
2022-08-23T13:39:54.328Z,22.96
2022-08-23T13:42:29.466Z,22.95
2022-08-23T13:44:58.424Z,22.92
2022-08-23T13:47:27.787Z,22.97
2022-08-23T13:49:55.488Z,22.98
2022-08-23T13:52:50.960Z,22.97
2022-08-23T13:55:14.115Z,22.97
2022-08-23T13:57:41.768Z,22.98
2022-08-23T14:00:13.508Z,22.97
2022-08-23T14:02:44.485Z,23.00
2022-08-23T14:05:12.249Z,22.98
2022-08-23T14:07:39.856Z,23.00
2022-08-23T14:10:08.297Z,22.99
2022-08-23T14:12:36.018Z,22.99
2022-08-23T14:15:03.917Z,23.00
2022-08-23T14:17:33.144Z,23.00
2022-08-23T14:22:49.919Z,23.00
2022-08-23T14:25:17.543Z,23.02
2022-08-23T14:27:45.924Z,23.03
2022-08-23T14:30:17.596Z,23.02
2022-08-23T14:32:46.565Z,23.03
2022-08-23T14:35:14.192Z,23.05
2022-08-23T14:40:29.972Z,23.06
2022-08-23T14:42:57.682Z,23.05
2022-08-23T14:45:25.504Z,23.06
2022-08-23T14:47:54.588Z,23.07
2022-08-23T14:50:22.434Z,23.08
2022-08-23T14:52:50.040Z,23.08
2022-08-23T14:55:18.820Z,23.08
2022-08-23T14:57:49.053Z,23.09
2022-08-23T15:00:17.561Z,23.10
2022-08-23T15:02:45.721Z,23.10
2022-08-23T15:05:15.026Z,23.10
2022-08-23T15:07:42.625Z,23.10
2022-08-23T15:10:10.997Z,23.12
2022-08-23T15:15:26.363Z,23.14
2022-08-23T15:17:54.810Z,23.15
2022-08-23T15:20:24.312Z,23.13
2022-08-23T15:22:55.572Z,23.12
2022-08-23T15:25:23.950Z,23.12
2022-08-23T15:27:51.571Z,23.12
2022-08-23T15:30:19.285Z,23.13
2022-08-23T15:32:52.743Z,23.12
2022-08-23T15:35:25.823Z,23.14
2022-08-23T15:37:54.490Z,23.13
2022-08-23T15:40:22.360Z,23.14
2022-08-23T15:42:52.724Z,23.14
2022-08-23T15:45:21.145Z,23.14
2022-08-23T15:47:49.586Z,23.17
2022-08-23T15:50:19.618Z,23.19
2022-08-23T15:52:51.207Z,23.20
2022-08-23T15:55:19.919Z,23.21
2022-08-23T15:57:48.360Z,23.20
2022-08-23T16:00:16.937Z,23.22
2022-08-23T16:03:18.286Z,23.21
2022-08-23T16:05:34.617Z,23.21
2022-08-23T16:08:04.536Z,23.22
2022-08-23T16:10:32.112Z,23.21
2022-08-23T16:12:59.770Z,23.22
2022-08-23T16:15:27.380Z,23.27
2022-08-23T16:17:55.079Z,23.27
2022-08-23T16:20:22.668Z,23.25
2022-08-23T16:22:50.329Z,23.24
2022-08-23T16:25:19.405Z,23.24
2022-08-23T16:27:47.202Z,23.24
2022-08-23T16:30:15.089Z,23.23
2022-08-23T16:32:42.756Z,23.23
2022-08-23T16:35:10.744Z,23.23
2022-08-23T16:37:38.464Z,23.23
2022-08-23T16:40:06.723Z,23.24
2022-08-23T16:42:36.270Z,23.24
2022-08-23T16:45:04.073Z,23.23
2022-08-23T16:47:31.693Z,23.22
2022-08-23T16:49:59.289Z,23.24
2022-08-23T16:52:34.354Z,23.23
2022-08-23T16:55:02.672Z,23.24
2022-08-23T16:57:30.267Z,23.23
2022-08-23T16:59:59.367Z,23.24
2022-08-23T17:02:27.784Z,23.22
2022-08-23T17:04:55.821Z,23.24
2022-08-23T17:07:23.348Z,23.23
2022-08-23T17:09:50.953Z,23.23
2022-08-23T17:12:18.956Z,23.24
2022-08-23T17:14:48.994Z,23.24
2022-08-23T17:17:18.346Z,23.24
2022-08-23T17:19:45.930Z,23.24
2022-08-23T17:22:13.784Z,23.24
2022-08-23T17:24:41.396Z,23.23
2022-08-23T17:27:09.146Z,23.24
2022-08-23T17:29:46.762Z,23.25
2022-08-23T17:32:14.803Z,23.25
2022-08-23T17:34:44.373Z,23.24
2022-08-23T17:37:15.721Z,23.24
2022-08-23T17:39:43.514Z,23.23
2022-08-23T17:42:11.546Z,23.24
2022-08-23T17:44:39.715Z,23.24
2022-08-23T17:47:07.822Z,23.23
2022-08-23T17:49:36.875Z,23.24
2022-08-23T17:52:07.115Z,23.24
2022-08-23T17:54:34.829Z,23.24
2022-08-23T17:57:04.877Z,23.23
2022-08-23T17:59:33.081Z,23.23
2022-08-23T18:02:00.669Z,23.23
2022-08-23T18:04:28.754Z,23.24
2022-08-23T18:06:56.625Z,23.24
2022-08-23T18:09:25.881Z,23.23
2022-08-23T18:11:57.083Z,23.24
2022-08-23T18:14:24.907Z,23.24
2022-08-23T18:16:52.643Z,23.23
2022-08-23T18:19:20.610Z,23.24
2022-08-23T18:21:49.237Z,23.23
2022-08-23T18:24:17.023Z,23.23
2022-08-23T18:27:03.442Z,23.23
2022-08-23T18:29:32.553Z,23.24
2022-08-23T18:32:00.315Z,23.23
2022-08-23T18:34:28.143Z,23.23
2022-08-23T18:36:55.864Z,23.24
2022-08-23T18:39:31.950Z,23.23
2022-08-23T18:42:01.376Z,23.24
2022-08-23T18:44:29.287Z,23.23
2022-08-23T18:46:57.177Z,23.23
2022-08-23T18:49:24.837Z,23.23
2022-08-23T18:51:52.599Z,23.25
2022-08-23T18:54:20.155Z,23.24
2022-08-23T18:56:47.733Z,23.25
2022-08-23T18:59:16.732Z,23.25
2022-08-23T19:01:45.294Z,23.25
2022-08-23T19:04:13.470Z,23.24
2022-08-23T19:06:41.288Z,23.24
2022-08-23T19:09:09.073Z,23.25
2022-08-23T19:11:40.641Z,23.25
2022-08-23T19:14:10.576Z,23.23
2022-08-23T19:16:39.697Z,23.24
2022-08-23T19:19:08.145Z,23.24
2022-08-23T19:21:35.716Z,23.23
2022-08-23T19:24:03.432Z,23.24
2022-08-23T19:26:31.979Z,23.24
2022-08-23T19:28:59.936Z,23.23
2022-08-23T19:31:33.496Z,23.25
2022-08-23T19:34:05.456Z,23.25
2022-08-23T19:36:46.654Z,23.23
2022-08-23T19:39:15.313Z,23.24
2022-08-23T19:41:42.956Z,23.24
2022-08-23T19:44:10.606Z,23.25
2022-08-23T19:46:42.068Z,23.25
2022-08-23T19:49:12.075Z,23.25
2022-08-23T19:51:39.961Z,23.25
2022-08-23T19:54:11.475Z,23.25
2022-08-23T19:56:41.234Z,23.25
2022-08-23T19:59:09.497Z,23.23
2022-08-23T20:01:37.217Z,23.24
2022-08-23T20:04:05.818Z,23.23
2022-08-23T20:06:35.364Z,23.23
2022-08-23T20:09:02.985Z,23.22
2022-08-23T20:11:32.162Z,23.23
2022-08-23T20:14:00.189Z,23.23
2022-08-23T20:16:28.188Z,23.23
2022-08-23T20:18:55.987Z,23.24
2022-08-23T20:21:24.079Z,23.22
2022-08-23T20:24:01.109Z,23.23
2022-08-23T20:26:30.114Z,23.24
2022-08-23T20:29:00.155Z,23.24
2022-08-23T20:31:29.397Z,23.23
2022-08-23T20:33:57.590Z,23.24
2022-08-23T20:36:30.515Z,23.24
2022-08-23T20:39:01.622Z,23.24
2022-08-23T20:41:35.888Z,23.24
2022-08-23T20:44:06.477Z,23.24
2022-08-23T20:46:36.284Z,23.24
2022-08-23T20:49:03.946Z,23.24
2022-08-23T20:51:31.930Z,23.24
2022-08-23T20:54:05.907Z,23.24
2022-08-23T20:56:33.535Z,23.23
2022-08-23T20:59:01.085Z,23.24
2022-08-23T21:01:29.269Z,23.23
2022-08-23T21:03:56.905Z,23.23
2022-08-23T21:06:25.573Z,23.24
2022-08-23T21:08:53.976Z,23.24
2022-08-23T21:11:22.997Z,23.21
2022-08-23T21:13:50.855Z,23.20
2022-08-23T21:16:18.597Z,23.13
2022-08-23T21:18:46.532Z,23.07
2022-08-23T21:21:16.049Z,23.01
2022-08-23T21:23:46.241Z,22.96
2022-08-23T21:26:13.895Z,22.88
2022-08-23T21:28:42.767Z,22.78
2022-08-23T21:31:10.932Z,22.62
2022-08-23T21:33:40.293Z,22.21
2022-08-23T21:36:08.336Z,21.99
2022-08-23T21:38:36.062Z,22.06
2022-08-23T21:41:05.043Z,21.99
2022-08-23T21:43:32.821Z,22.12
2022-08-23T21:46:02.073Z,22.07
2022-08-23T21:48:29.840Z,21.96
2022-08-23T21:50:58.061Z,21.97
2022-08-23T21:53:25.750Z,21.84
2022-08-23T21:55:53.400Z,21.73
2022-08-23T21:58:21.617Z,21.66
2022-08-23T22:00:49.268Z,21.56
2022-08-23T22:03:18.384Z,21.44
2022-08-23T22:05:46.840Z,21.41
2022-08-23T22:08:15.559Z,21.35
2022-08-23T22:10:57.879Z,21.25
2022-08-23T22:13:26.056Z,21.30
2022-08-23T22:15:53.743Z,21.75
2022-08-23T22:18:22.723Z,21.98
2022-08-23T22:20:50.328Z,22.07
2022-08-23T22:23:18.326Z,22.14
2022-08-23T22:25:45.872Z,22.17
2022-08-23T22:28:13.431Z,22.20
2022-08-23T22:30:42.421Z,22.24
2022-08-23T22:33:10.815Z,22.25
2022-08-23T22:35:39.773Z,22.28
2022-08-23T22:38:14.928Z,22.28
2022-08-23T22:40:47.808Z,22.31
2022-08-23T22:43:15.831Z,22.31
2022-08-23T22:45:49.334Z,22.30
2022-08-23T22:48:16.982Z,22.31
2022-08-23T22:50:46.224Z,22.31
2022-08-23T22:53:14.578Z,22.30
2022-08-23T22:55:42.244Z,22.30
2022-08-23T22:58:09.920Z,22.32
2022-08-23T23:00:41.689Z,22.30
2022-08-23T23:03:09.570Z,22.30
2022-08-23T23:05:38.317Z,22.29
2022-08-23T23:08:24.941Z,22.30
2022-08-23T23:10:52.503Z,22.30
2022-08-23T23:13:20.121Z,22.30
2022-08-23T23:15:47.727Z,22.31
2022-08-23T23:18:15.889Z,22.30
2022-08-23T23:20:42.561Z,22.28
2022-08-23T23:23:12.529Z,22.28
2022-08-23T23:25:40.911Z,22.28
2022-08-23T23:28:08.580Z,22.28
2022-08-23T23:30:36.212Z,22.28
2022-08-23T23:33:05.769Z,22.28
2022-08-23T23:35:33.560Z,22.26
2022-08-23T23:38:01.489Z,22.27
2022-08-23T23:40:30.592Z,22.27
2022-08-23T23:42:58.183Z,22.26
2022-08-23T23:45:25.976Z,22.26
2022-08-23T23:47:53.596Z,22.29
2022-08-23T23:50:21.371Z,22.27
2022-08-23T23:52:49.259Z,22.25
2022-08-23T23:55:17.742Z,22.25
2022-08-23T23:57:47.064Z,22.26
